EGTE

Exeter International Airport

Exeter, United Kingdom
METAR EGTE 201450Z 35012KT 320V020 9999 FEW040 10/01 Q1024
Observed Flight Rules
Feb-20 @ 14:50 UTC (5 hours ago) Visual Flight Rules
Wind Visibility Clouds
350° at 12 knots 10,000+ meters
  • Few at 4,000' AGL
Temperatures Readings
Current 10°C / 50°F
Dewpoint 1°C / 34°F
Humidity 54%
Altimeter 30.24" Hg
Pressure 1024 hPa
Elevation 30
METAR EGTE 201450Z 35012KT 320V020 9999 FEW040 10/01 Q1024
Observed Flight Rules
Feb-20 @ 14:50 UTC
(5 hours ago)
VFR
Wind Visibility
350° at 12 knots 10,000+ meters
Clouds
  • Few at 4,000' AGL
Temperature Dewpoint
10°C / 50°F 1°C / 34°F
Humidity Altimeter Pressure
54% 30.24" Hg 1024 hPa